sensor_id;sensor_type;location;lat;lon;timestamp;P1;durP1;ratioP1;P2;durP2;ratioP2
13147;SDS011;6639;50.956;4.242;2023-06-10T00:01:37;6.53;;;5.88;;
13147;SDS011;6639;50.956;4.242;2023-06-10T00:04:04;7.40;;;5.63;;
13147;SDS011;6639;50.956;4.242;2023-06-10T00:06:31;6.10;;;5.60;;
13147;SDS011;6639;50.956;4.242;2023-06-10T00:09:01;6.10;;;5.63;;
13147;SDS011;6639;50.956;4.242;2023-06-10T00:11:30;7.28;;;6.22;;
13147;SDS011;6639;50.956;4.242;2023-06-10T00:13:57;6.75;;;6.10;;
13147;SDS011;6639;50.956;4.242;2023-06-10T00:16:24;7.07;;;6.47;;
13147;SDS011;6639;50.956;4.242;2023-06-10T00:18:53;6.82;;;6.20;;
13147;SDS011;6639;50.956;4.242;2023-06-10T00:21:25;7.18;;;6.53;;
13147;SDS011;6639;50.956;4.242;2023-06-10T00:23:52;6.65;;;6.15;;
13147;SDS011;6639;50.956;4.242;2023-06-10T00:26:20;7.07;;;6.43;;
13147;SDS011;6639;50.956;4.242;2023-06-10T00:28:47;7.13;;;6.47;;
13147;SDS011;6639;50.956;4.242;2023-06-10T00:31:14;7.00;;;6.40;;
13147;SDS011;6639;50.956;4.242;2023-06-10T00:33:41;6.40;;;5.80;;
13147;SDS011;6639;50.956;4.242;2023-06-10T00:36:09;6.72;;;6.03;;
13147;SDS011;6639;50.956;4.242;2023-06-10T00:38:36;7.82;;;6.40;;
13147;SDS011;6639;50.956;4.242;2023-06-10T00:41:05;6.82;;;6.20;;
13147;SDS011;6639;50.956;4.242;2023-06-10T00:43:32;7.00;;;6.45;;
13147;SDS011;6639;50.956;4.242;2023-06-10T00:45:59;6.35;;;5.75;;
13147;SDS011;6639;50.956;4.242;2023-06-10T00:48:27;6.43;;;5.93;;
13147;SDS011;6639;50.956;4.242;2023-06-10T00:50:54;6.55;;;6.00;;
13147;SDS011;6639;50.956;4.242;2023-06-10T00:53:22;6.72;;;6.07;;
13147;SDS011;6639;50.956;4.242;2023-06-10T00:55:50;6.85;;;6.30;;
13147;SDS011;6639;50.956;4.242;2023-06-10T00:58:17;6.63;;;6.03;;
13147;SDS011;6639;50.956;4.242;2023-06-10T01:00:44;7.60;;;6.93;;
13147;SDS011;6639;50.956;4.242;2023-06-10T01:03:11;6.70;;;5.93;;
13147;SDS011;6639;50.956;4.242;2023-06-10T01:05:39;6.28;;;5.88;;
13147;SDS011;6639;50.956;4.242;2023-06-10T01:08:09;6.85;;;6.15;;
13147;SDS011;6639;50.956;4.242;2023-06-10T01:10:50;7.22;;;6.55;;
13147;SDS011;6639;50.956;4.242;2023-06-10T01:13:20;7.05;;;6.50;;
13147;SDS011;6639;50.956;4.242;2023-06-10T01:15:50;7.15;;;6.57;;
13147;SDS011;6639;50.956;4.242;2023-06-10T01:18:17;6.85;;;6.35;;
13147;SDS011;6639;50.956;4.242;2023-06-10T01:20:44;7.05;;;6.28;;
13147;SDS011;6639;50.956;4.242;2023-06-10T01:23:14;6.95;;;6.32;;
13147;SDS011;6639;50.956;4.242;2023-06-10T01:25:43;6.60;;;6.10;;
13147;SDS011;6639;50.956;4.242;2023-06-10T01:28:14;7.05;;;6.45;;
13147;SDS011;6639;50.956;4.242;2023-06-10T01:30:46;8.30;;;6.93;;
13147;SDS011;6639;50.956;4.242;2023-06-10T01:33:22;7.30;;;6.70;;
13147;SDS011;6639;50.956;4.242;2023-06-10T01:35:53;6.97;;;6.38;;
13147;SDS011;6639;50.956;4.242;2023-06-10T01:38:25;7.07;;;6.55;;
13147;SDS011;6639;50.956;4.242;2023-06-10T01:40:53;6.97;;;6.47;;
13147;SDS011;6639;50.956;4.242;2023-06-10T01:43:22;6.72;;;6.18;;
13147;SDS011;6639;50.956;4.242;2023-06-10T01:45:49;7.32;;;6.60;;
13147;SDS011;6639;50.956;4.242;2023-06-10T01:48:16;7.65;;;7.05;;
13147;SDS011;6639;50.956;4.242;2023-06-10T01:50:43;7.35;;;6.75;;
13147;SDS011;6639;50.956;4.242;2023-06-10T01:53:10;7.63;;;6.95;;
13147;SDS011;6639;50.956;4.242;2023-06-10T01:55:38;7.50;;;6.90;;
13147;SDS011;6639;50.956;4.242;2023-06-10T01:58:05;7.50;;;6.93;;
13147;SDS011;6639;50.956;4.242;2023-06-10T02:00:32;7.35;;;6.75;;
13147;SDS011;6639;50.956;4.242;2023-06-10T02:02:59;7.57;;;6.72;;
13147;SDS011;6639;50.956;4.242;2023-06-10T02:05:25;7.72;;;7.03;;
13147;SDS011;6639;50.956;4.242;2023-06-10T02:07:52;7.35;;;6.75;;
13147;SDS011;6639;50.956;4.242;2023-06-10T02:10:19;7.78;;;7.18;;
13147;SDS011;6639;50.956;4.242;2023-06-10T02:12:48;7.72;;;7.13;;
13147;SDS011;6639;50.956;4.242;2023-06-10T02:15:15;7.70;;;7.00;;
13147;SDS011;6639;50.956;4.242;2023-06-10T02:17:42;7.50;;;6.80;;
13147;SDS011;6639;50.956;4.242;2023-06-10T02:20:10;8.07;;;7.47;;
13147;SDS011;6639;50.956;4.242;2023-06-10T02:22:40;8.35;;;7.53;;
13147;SDS011;6639;50.956;4.242;2023-06-10T02:25:07;7.82;;;7.13;;
13147;SDS011;6639;50.956;4.242;2023-06-10T02:27:35;7.35;;;6.65;;
13147;SDS011;6639;50.956;4.242;2023-06-10T02:30:03;7.75;;;7.05;;
13147;SDS011;6639;50.956;4.242;2023-06-10T02:32:31;9.23;;;7.20;;
13147;SDS011;6639;50.956;4.242;2023-06-10T02:34:58;7.97;;;7.28;;
13147;SDS011;6639;50.956;4.242;2023-06-10T02:37:25;7.72;;;7.13;;
13147;SDS011;6639;50.956;4.242;2023-06-10T02:39:52;7.80;;;7.15;;
13147;SDS011;6639;50.956;4.242;2023-06-10T02:42:19;7.50;;;6.90;;
13147;SDS011;6639;50.956;4.242;2023-06-10T02:44:46;8.02;;;7.40;;
13147;SDS011;6639;50.956;4.242;2023-06-10T02:47:14;8.50;;;7.60;;
13147;SDS011;6639;50.956;4.242;2023-06-10T02:49:41;7.93;;;7.22;;
13147;SDS011;6639;50.956;4.242;2023-06-10T02:52:08;8.93;;;7.43;;
13147;SDS011;6639;50.956;4.242;2023-06-10T02:54:36;8.32;;;7.63;;
13147;SDS011;6639;50.956;4.242;2023-06-10T02:57:03;8.43;;;7.82;;
13147;SDS011;6639;50.956;4.242;2023-06-10T02:59:31;7.88;;;7.25;;
13147;SDS011;6639;50.956;4.242;2023-06-10T03:01:58;9.88;;;9.07;;
13147;SDS011;6639;50.956;4.242;2023-06-10T03:04:27;8.10;;;7.50;;
13147;SDS011;6639;50.956;4.242;2023-06-10T03:06:55;7.20;;;6.70;;
13147;SDS011;6639;50.956;4.242;2023-06-10T03:09:22;8.68;;;7.88;;
13147;SDS011;6639;50.956;4.242;2023-06-10T03:11:49;9.20;;;8.48;;
13147;SDS011;6639;50.956;4.242;2023-06-10T03:14:16;9.20;;;8.48;;
13147;SDS011;6639;50.956;4.242;2023-06-10T03:16:43;8.23;;;7.63;;
13147;SDS011;6639;50.956;4.242;2023-06-10T03:19:10;9.13;;;8.43;;
13147;SDS011;6639;50.956;4.242;2023-06-10T03:21:38;10.07;;;8.38;;
13147;SDS011;6639;50.956;4.242;2023-06-10T03:24:10;9.95;;;8.95;;
13147;SDS011;6639;50.956;4.242;2023-06-10T03:26:37;10.23;;;9.25;;
13147;SDS011;6639;50.956;4.242;2023-06-10T03:29:04;9.23;;;8.52;;
13147;SDS011;6639;50.956;4.242;2023-06-10T03:31:31;8.98;;;8.27;;
13147;SDS011;6639;50.956;4.242;2023-06-10T03:33:58;9.07;;;8.27;;
13147;SDS011;6639;50.956;4.242;2023-06-10T03:36:25;10.15;;;9.13;;
13147;SDS011;6639;50.956;4.242;2023-06-10T03:38:55;9.15;;;8.45;;
13147;SDS011;6639;50.956;4.242;2023-06-10T03:41:22;9.07;;;8.32;;
13147;SDS011;6639;50.956;4.242;2023-06-10T03:43:50;9.68;;;8.88;;
13147;SDS011;6639;50.956;4.242;2023-06-10T03:46:17;9.73;;;8.93;;
13147;SDS011;6639;50.956;4.242;2023-06-10T03:48:44;10.10;;;9.13;;
13147;SDS011;6639;50.956;4.242;2023-06-10T03:51:11;9.80;;;8.90;;
13147;SDS011;6639;50.956;4.242;2023-06-10T03:53:38;9.05;;;8.32;;
13147;SDS011;6639;50.956;4.242;2023-06-10T03:56:06;10.02;;;9.10;;
13147;SDS011;6639;50.956;4.242;2023-06-10T03:58:33;9.98;;;9.02;;
13147;SDS011;6639;50.956;4.242;2023-06-10T04:01:00;9.27;;;8.48;;
13147;SDS011;6639;50.956;4.242;2023-06-10T04:03:27;9.10;;;8.40;;
13147;SDS011;6639;50.956;4.242;2023-06-10T04:05:54;9.25;;;8.45;;
13147;SDS011;6639;50.956;4.242;2023-06-10T04:08:21;9.52;;;8.68;;
13147;SDS011;6639;50.956;4.242;2023-06-10T04:10:48;10.00;;;9.13;;
13147;SDS011;6639;50.956;4.242;2023-06-10T04:13:16;9.35;;;8.57;;
13147;SDS011;6639;50.956;4.242;2023-06-10T04:15:44;9.68;;;8.75;;
13147;SDS011;6639;50.956;4.242;2023-06-10T04:18:11;10.20;;;9.40;;
13147;SDS011;6639;50.956;4.242;2023-06-10T04:20:38;10.57;;;9.68;;
13147;SDS011;6639;50.956;4.242;2023-06-10T04:23:05;9.77;;;9.00;;
13147;SDS011;6639;50.956;4.242;2023-06-10T04:25:32;10.48;;;9.57;;
13147;SDS011;6639;50.956;4.242;2023-06-10T04:27:59;9.40;;;8.65;;
13147;SDS011;6639;50.956;4.242;2023-06-10T04:30:28;9.32;;;8.55;;
13147;SDS011;6639;50.956;4.242;2023-06-10T04:32:56;9.15;;;8.45;;
13147;SDS011;6639;50.956;4.242;2023-06-10T04:35:23;9.50;;;8.65;;
13147;SDS011;6639;50.956;4.242;2023-06-10T04:37:51;9.80;;;8.82;;
13147;SDS011;6639;50.956;4.242;2023-06-10T04:40:18;9.45;;;8.65;;
13147;SDS011;6639;50.956;4.242;2023-06-10T04:42:45;8.88;;;8.18;;
13147;SDS011;6639;50.956;4.242;2023-06-10T04:45:12;9.40;;;8.70;;
13147;SDS011;6639;50.956;4.242;2023-06-10T04:47:40;9.07;;;8.27;;
13147;SDS011;6639;50.956;4.242;2023-06-10T04:50:08;9.20;;;8.40;;
13147;SDS011;6639;50.956;4.242;2023-06-10T04:52:36;9.88;;;9.07;;
13147;SDS011;6639;50.956;4.242;2023-06-10T04:55:03;8.55;;;7.78;;
13147;SDS011;6639;50.956;4.242;2023-06-10T04:57:30;8.70;;;8.00;;
13147;SDS011;6639;50.956;4.242;2023-06-10T04:59:57;8.98;;;8.15;;
13147;SDS011;6639;50.956;4.242;2023-06-10T05:02:24;8.95;;;8.25;;
13147;SDS011;6639;50.956;4.242;2023-06-10T05:04:52;9.15;;;8.35;;
13147;SDS011;6639;50.956;4.242;2023-06-10T05:07:20;9.23;;;8.50;;
13147;SDS011;6639;50.956;4.242;2023-06-10T05:09:47;9.27;;;8.38;;
13147;SDS011;6639;50.956;4.242;2023-06-10T05:12:13;8.55;;;7.75;;
13147;SDS011;6639;50.956;4.242;2023-06-10T05:14:40;8.48;;;7.78;;
13147;SDS011;6639;50.956;4.242;2023-06-10T05:17:07;8.98;;;8.13;;
13147;SDS011;6639;50.956;4.242;2023-06-10T05:19:34;8.60;;;7.90;;
13147;SDS011;6639;50.956;4.242;2023-06-10T05:22:04;8.90;;;8.10;;
13147;SDS011;6639;50.956;4.242;2023-06-10T05:24:31;8.52;;;7.82;;
13147;SDS011;6639;50.956;4.242;2023-06-10T05:26:58;10.65;;;8.10;;
13147;SDS011;6639;50.956;4.242;2023-06-10T05:29:25;8.95;;;8.25;;
13147;SDS011;6639;50.956;4.242;2023-06-10T05:31:52;9.52;;;8.63;;
13147;SDS011;6639;50.956;4.242;2023-06-10T05:34:21;9.35;;;8.50;;
13147;SDS011;6639;50.956;4.242;2023-06-10T05:36:48;9.52;;;8.82;;
13147;SDS011;6639;50.956;4.242;2023-06-10T05:39:16;9.05;;;8.35;;
13147;SDS011;6639;50.956;4.242;2023-06-10T05:41:43;9.73;;;8.50;;
13147;SDS011;6639;50.956;4.242;2023-06-10T05:44:12;9.52;;;8.25;;
13147;SDS011;6639;50.956;4.242;2023-06-10T05:46:39;10.38;;;9.00;;
13147;SDS011;6639;50.956;4.242;2023-06-10T05:49:06;8.20;;;7.55;;
13147;SDS011;6639;50.956;4.242;2023-06-10T05:51:33;8.40;;;7.70;;
13147;SDS011;6639;50.956;4.242;2023-06-10T05:54:00;8.95;;;8.18;;
13147;SDS011;6639;50.956;4.242;2023-06-10T05:56:28;10.27;;;8.25;;
13147;SDS011;6639;50.956;4.242;2023-06-10T05:58:55;8.93;;;8.23;;
13147;SDS011;6639;50.956;4.242;2023-06-10T06:01:22;8.63;;;7.85;;
13147;SDS011;6639;50.956;4.242;2023-06-10T06:03:49;8.57;;;7.88;;
13147;SDS011;6639;50.956;4.242;2023-06-10T06:06:16;9.55;;;8.65;;
13147;SDS011;6639;50.956;4.242;2023-06-10T06:08:45;9.38;;;8.63;;
13147;SDS011;6639;50.956;4.242;2023-06-10T06:11:12;8.32;;;7.70;;
13147;SDS011;6639;50.956;4.242;2023-06-10T06:13:41;8.32;;;7.65;;
13147;SDS011;6639;50.956;4.242;2023-06-10T06:16:08;8.43;;;7.70;;
13147;SDS011;6639;50.956;4.242;2023-06-10T06:18:35;9.63;;;8.82;;
13147;SDS011;6639;50.956;4.242;2023-06-10T06:21:02;8.90;;;8.00;;
13147;SDS011;6639;50.956;4.242;2023-06-10T06:23:28;9.38;;;8.48;;
13147;SDS011;6639;50.956;4.242;2023-06-10T06:25:56;8.88;;;8.13;;
13147;SDS011;6639;50.956;4.242;2023-06-10T06:28:23;8.90;;;8.20;;
13147;SDS011;6639;50.956;4.242;2023-06-10T06:30:55;8.73;;;7.75;;
13147;SDS011;6639;50.956;4.242;2023-06-10T06:33:22;8.48;;;7.78;;
13147;SDS011;6639;50.956;4.242;2023-06-10T06:35:51;9.07;;;8.23;;
13147;SDS011;6639;50.956;4.242;2023-06-10T06:38:18;8.45;;;7.75;;
13147;SDS011;6639;50.956;4.242;2023-06-10T06:40:45;11.85;;;7.55;;
13147;SDS011;6639;50.956;4.242;2023-06-10T06:43:12;8.88;;;8.07;;
13147;SDS011;6639;50.956;4.242;2023-06-10T06:45:39;8.32;;;7.72;;
13147;SDS011;6639;50.956;4.242;2023-06-10T06:48:07;8.30;;;7.60;;
13147;SDS011;6639;50.956;4.242;2023-06-10T06:50:34;8.27;;;7.60;;
13147;SDS011;6639;50.956;4.242;2023-06-10T06:53:01;8.75;;;7.97;;
13147;SDS011;6639;50.956;4.242;2023-06-10T06:55:28;8.32;;;7.53;;
13147;SDS011;6639;50.956;4.242;2023-06-10T06:57:55;8.40;;;7.63;;
13147;SDS011;6639;50.956;4.242;2023-06-10T07:00:23;8.18;;;7.50;;
13147;SDS011;6639;50.956;4.242;2023-06-10T07:02:50;8.60;;;7.85;;
13147;SDS011;6639;50.956;4.242;2023-06-10T07:05:19;9.65;;;7.40;;
13147;SDS011;6639;50.956;4.242;2023-06-10T07:07:46;7.43;;;6.82;;
13147;SDS011;6639;50.956;4.242;2023-06-10T07:10:12;7.18;;;6.57;;
13147;SDS011;6639;50.956;4.242;2023-06-10T07:12:40;8.23;;;7.43;;
13147;SDS011;6639;50.956;4.242;2023-06-10T07:15:07;8.15;;;7.50;;
13147;SDS011;6639;50.956;4.242;2023-06-10T07:17:34;7.88;;;7.15;;
13147;SDS011;6639;50.956;4.242;2023-06-10T07:20:01;7.57;;;7.00;;
13147;SDS011;6639;50.956;4.242;2023-06-10T07:22:30;8.18;;;7.47;;
13147;SDS011;6639;50.956;4.242;2023-06-10T07:24:57;8.05;;;7.00;;
13147;SDS011;6639;50.956;4.242;2023-06-10T07:27:24;8.45;;;7.75;;
13147;SDS011;6639;50.956;4.242;2023-06-10T07:29:51;7.57;;;6.70;;
13147;SDS011;6639;50.956;4.242;2023-06-10T07:32:18;7.18;;;6.57;;
13147;SDS011;6639;50.956;4.242;2023-06-10T07:34:47;7.80;;;6.97;;
13147;SDS011;6639;50.956;4.242;2023-06-10T07:37:14;8.00;;;7.20;;
13147;SDS011;6639;50.956;4.242;2023-06-10T07:39:42;7.40;;;6.78;;
13147;SDS011;6639;50.956;4.242;2023-06-10T07:42:09;6.95;;;6.45;;
13147;SDS011;6639;50.956;4.242;2023-06-10T07:44:36;7.20;;;6.50;;
13147;SDS011;6639;50.956;4.242;2023-06-10T07:47:03;6.85;;;6.35;;
13147;SDS011;6639;50.956;4.242;2023-06-10T07:49:31;7.15;;;6.45;;
13147;SDS011;6639;50.956;4.242;2023-06-10T07:51:58;6.97;;;6.40;;
13147;SDS011;6639;50.956;4.242;2023-06-10T07:54:24;6.95;;;6.35;;
13147;SDS011;6639;50.956;4.242;2023-06-10T07:56:53;7.43;;;6.72;;
13147;SDS011;6639;50.956;4.242;2023-06-10T07:59:20;6.90;;;6.28;;
13147;SDS011;6639;50.956;4.242;2023-06-10T08:01:47;7.60;;;6.22;;
13147;SDS011;6639;50.956;4.242;2023-06-10T08:04:14;6.80;;;6.25;;
13147;SDS011;6639;50.956;4.242;2023-06-10T08:06:40;7.50;;;6.18;;
13147;SDS011;6639;50.956;4.242;2023-06-10T08:09:07;7.07;;;6.40;;
13147;SDS011;6639;50.956;4.242;2023-06-10T08:11:34;7.13;;;6.28;;
13147;SDS011;6639;50.956;4.242;2023-06-10T08:14:02;6.15;;;5.70;;
13147;SDS011;6639;50.956;4.242;2023-06-10T08:16:30;6.75;;;5.68;;
13147;SDS011;6639;50.956;4.242;2023-06-10T08:18:56;6.38;;;5.78;;
13147;SDS011;6639;50.956;4.242;2023-06-10T08:21:23;6.35;;;5.75;;
13147;SDS011;6639;50.956;4.242;2023-06-10T08:23:52;8.07;;;6.05;;
13147;SDS011;6639;50.956;4.242;2023-06-10T08:26:19;6.82;;;6.07;;
13147;SDS011;6639;50.956;4.242;2023-06-10T08:28:46;6.68;;;5.80;;
13147;SDS011;6639;50.956;4.242;2023-06-10T08:31:14;6.20;;;5.60;;
13147;SDS011;6639;50.956;4.242;2023-06-10T08:33:42;7.03;;;6.15;;
13147;SDS011;6639;50.956;4.242;2023-06-10T08:36:09;6.03;;;5.50;;
13147;SDS011;6639;50.956;4.242;2023-06-10T08:38:36;5.70;;;5.30;;
13147;SDS011;6639;50.956;4.242;2023-06-10T08:41:03;6.50;;;5.90;;
13147;SDS011;6639;50.956;4.242;2023-06-10T08:43:32;7.35;;;6.10;;
13147;SDS011;6639;50.956;4.242;2023-06-10T08:46:03;6.10;;;5.70;;
13147;SDS011;6639;50.956;4.242;2023-06-10T08:48:31;6.38;;;5.68;;
13147;SDS011;6639;50.956;4.242;2023-06-10T08:51:01;5.90;;;5.40;;
13147;SDS011;6639;50.956;4.242;2023-06-10T08:53:30;6.50;;;6.00;;
13147;SDS011;6639;50.956;4.242;2023-06-10T08:56:03;6.97;;;6.38;;
13147;SDS011;6639;50.956;4.242;2023-06-10T08:58:31;6.00;;;5.50;;
13147;SDS011;6639;50.956;4.242;2023-06-10T09:01:05;6.45;;;5.85;;
13147;SDS011;6639;50.956;4.242;2023-06-10T09:03:33;5.43;;;4.95;;
13147;SDS011;6639;50.956;4.242;2023-06-10T09:06:02;6.20;;;5.57;;
13147;SDS011;6639;50.956;4.242;2023-06-10T09:08:31;5.68;;;5.28;;
13147;SDS011;6639;50.956;4.242;2023-06-10T09:10:59;6.10;;;5.50;;
13147;SDS011;6639;50.956;4.242;2023-06-10T09:13:26;5.07;;;4.68;;
13147;SDS011;6639;50.956;4.242;2023-06-10T09:15:53;6.63;;;5.25;;
13147;SDS011;6639;50.956;4.242;2023-06-10T09:18:21;6.78;;;5.07;;
13147;SDS011;6639;50.956;4.242;2023-06-10T09:20:50;5.47;;;5.00;;
13147;SDS011;6639;50.956;4.242;2023-06-10T09:23:16;6.13;;;4.90;;
13147;SDS011;6639;50.956;4.242;2023-06-10T09:25:43;5.47;;;5.05;;
13147;SDS011;6639;50.956;4.242;2023-06-10T09:28:14;5.57;;;4.97;;
13147;SDS011;6639;50.956;4.242;2023-06-10T09:30:41;5.55;;;5.00;;
13147;SDS011;6639;50.956;4.242;2023-06-10T09:33:09;5.13;;;4.75;;
13147;SDS011;6639;50.956;4.242;2023-06-10T09:35:44;5.18;;;4.88;;
13147;SDS011;6639;50.956;4.242;2023-06-10T09:38:14;5.63;;;5.20;;
13147;SDS011;6639;50.956;4.242;2023-06-10T09:40:48;5.55;;;5.00;;
13147;SDS011;6639;50.956;4.242;2023-06-10T09:43:16;5.20;;;4.80;;
13147;SDS011;6639;50.956;4.242;2023-06-10T09:45:43;5.40;;;4.95;;
13147;SDS011;6639;50.956;4.242;2023-06-10T09:48:13;5.20;;;4.80;;
13147;SDS011;6639;50.956;4.242;2023-06-10T09:50:41;4.57;;;4.20;;
13147;SDS011;6639;50.956;4.242;2023-06-10T09:53:09;4.95;;;4.50;;
13147;SDS011;6639;50.956;4.242;2023-06-10T09:55:38;6.53;;;4.93;;
13147;SDS011;6639;50.956;4.242;2023-06-10T09:58:06;5.95;;;4.40;;
13147;SDS011;6639;50.956;4.242;2023-06-10T10:00:34;5.20;;;4.80;;
13147;SDS011;6639;50.956;4.242;2023-06-10T10:03:01;4.70;;;4.40;;
13147;SDS011;6639;50.956;4.242;2023-06-10T10:05:28;4.57;;;4.28;;
13147;SDS011;6639;50.956;4.242;2023-06-10T10:07:55;5.18;;;4.75;;
13147;SDS011;6639;50.956;4.242;2023-06-10T10:10:22;4.85;;;4.55;;
13147;SDS011;6639;50.956;4.242;2023-06-10T10:12:53;4.75;;;4.32;;
13147;SDS011;6639;50.956;4.242;2023-06-10T10:15:23;4.88;;;4.57;;
13147;SDS011;6639;50.956;4.242;2023-06-10T10:17:52;5.15;;;4.28;;
13147;SDS011;6639;50.956;4.242;2023-06-10T10:20:24;4.90;;;4.50;;
13147;SDS011;6639;50.956;4.242;2023-06-10T10:22:55;6.95;;;4.38;;
13147;SDS011;6639;50.956;4.242;2023-06-10T10:25:24;4.68;;;4.20;;
13147;SDS011;6639;50.956;4.242;2023-06-10T10:27:56;5.43;;;4.88;;
13147;SDS011;6639;50.956;4.242;2023-06-10T10:30:28;4.93;;;4.18;;
13147;SDS011;6639;50.956;4.242;2023-06-10T10:33:02;5.40;;;4.85;;
13147;SDS011;6639;50.956;4.242;2023-06-10T10:35:33;4.90;;;4.30;;
13147;SDS011;6639;50.956;4.242;2023-06-10T10:38:01;4.82;;;4.53;;
13147;SDS011;6639;50.956;4.242;2023-06-10T10:40:29;4.53;;;4.22;;
13147;SDS011;6639;50.956;4.242;2023-06-10T10:42:59;4.65;;;4.25;;
13147;SDS011;6639;50.956;4.242;2023-06-10T10:45:27;4.72;;;4.38;;
13147;SDS011;6639;50.956;4.242;2023-06-10T10:47:54;5.32;;;4.80;;
13147;SDS011;6639;50.956;4.242;2023-06-10T10:50:22;4.75;;;4.45;;
13147;SDS011;6639;50.956;4.242;2023-06-10T10:52:54;4.63;;;4.32;;
13147;SDS011;6639;50.956;4.242;2023-06-10T10:55:22;4.75;;;4.35;;
13147;SDS011;6639;50.956;4.242;2023-06-10T10:57:56;7.32;;;4.38;;
13147;SDS011;6639;50.956;4.242;2023-06-10T11:00:29;4.57;;;4.18;;
13147;SDS011;6639;50.956;4.242;2023-06-10T11:03:00;4.50;;;4.20;;
13147;SDS011;6639;50.956;4.242;2023-06-10T11:05:36;4.30;;;3.90;;
13147;SDS011;6639;50.956;4.242;2023-06-10T11:08:05;4.47;;;4.18;;
13147;SDS011;6639;50.956;4.242;2023-06-10T11:10:33;4.47;;;4.07;;
13147;SDS011;6639;50.956;4.242;2023-06-10T11:13:05;4.40;;;4.10;;
13147;SDS011;6639;50.956;4.242;2023-06-10T11:15:37;4.45;;;4.05;;
13147;SDS011;6639;50.956;4.242;2023-06-10T11:18:12;4.57;;;4.25;;
13147;SDS011;6639;50.956;4.242;2023-06-10T11:20:57;4.60;;;4.18;;
13147;SDS011;6639;50.956;4.242;2023-06-10T11:23:37;4.78;;;4.47;;
13147;SDS011;6639;50.956;4.242;2023-06-10T11:26:09;4.50;;;4.10;;
13147;SDS011;6639;50.956;4.242;2023-06-10T11:28:40;5.50;;;4.18;;
13147;SDS011;6639;50.956;4.242;2023-06-10T11:31:09;4.82;;;4.40;;
13147;SDS011;6639;50.956;4.242;2023-06-10T11:33:44;4.50;;;4.20;;
13147;SDS011;6639;50.956;4.242;2023-06-10T11:36:13;5.65;;;5.18;;
13147;SDS011;6639;50.956;4.242;2023-06-10T11:38:40;5.13;;;4.72;;
13147;SDS011;6639;50.956;4.242;2023-06-10T11:41:08;7.97;;;4.32;;
13147;SDS011;6639;50.956;4.242;2023-06-10T11:43:36;4.88;;;4.40;;
13147;SDS011;6639;50.956;4.242;2023-06-10T11:46:03;3.97;;;3.75;;
13147;SDS011;6639;50.956;4.242;2023-06-10T11:48:34;4.72;;;4.35;;
13147;SDS011;6639;50.956;4.242;2023-06-10T11:51:05;5.85;;;4.32;;
13147;SDS011;6639;50.956;4.242;2023-06-10T11:53:32;4.95;;;4.55;;
13147;SDS011;6639;50.956;4.242;2023-06-10T11:55:59;4.70;;;4.40;;
13147;SDS011;6639;50.956;4.242;2023-06-10T11:58:26;5.45;;;4.97;;
13147;SDS011;6639;50.956;4.242;2023-06-10T12:00:54;3.88;;;3.67;;
13147;SDS011;6639;50.956;4.242;2023-06-10T12:03:23;5.32;;;4.93;;
13147;SDS011;6639;50.956;4.242;2023-06-10T12:05:56;5.30;;;4.78;;
13147;SDS011;6639;50.956;4.242;2023-06-10T12:08:24;5.95;;;4.55;;
13147;SDS011;6639;50.956;4.242;2023-06-10T12:10:51;5.65;;;5.15;;
13147;SDS011;6639;50.956;4.242;2023-06-10T12:13:18;5.05;;;4.60;;
13147;SDS011;6639;50.956;4.242;2023-06-10T12:15:45;4.82;;;4.53;;
13147;SDS011;6639;50.956;4.242;2023-06-10T12:18:15;5.00;;;4.57;;
13147;SDS011;6639;50.956;4.242;2023-06-10T12:20:43;5.35;;;4.85;;
13147;SDS011;6639;50.956;4.242;2023-06-10T12:23:12;5.35;;;4.95;;
13147;SDS011;6639;50.956;4.242;2023-06-10T12:25:39;5.90;;;4.88;;
13147;SDS011;6639;50.956;4.242;2023-06-10T12:28:15;6.18;;;5.25;;
13147;SDS011;6639;50.956;4.242;2023-06-10T12:30:42;5.68;;;5.15;;
13147;SDS011;6639;50.956;4.242;2023-06-10T12:33:15;4.72;;;4.30;;
13147;SDS011;6639;50.956;4.242;2023-06-10T12:35:47;5.45;;;4.32;;
13147;SDS011;6639;50.956;4.242;2023-06-10T12:38:18;4.97;;;4.57;;
13147;SDS011;6639;50.956;4.242;2023-06-10T12:40:49;5.30;;;4.90;;
13147;SDS011;6639;50.956;4.242;2023-06-10T12:43:19;5.63;;;5.20;;
13147;SDS011;6639;50.956;4.242;2023-06-10T12:45:46;4.97;;;4.57;;
13147;SDS011;6639;50.956;4.242;2023-06-10T12:48:17;6.25;;;4.63;;
13147;SDS011;6639;50.956;4.242;2023-06-10T12:50:50;5.22;;;4.75;;
13147;SDS011;6639;50.956;4.242;2023-06-10T12:53:18;4.97;;;4.60;;
13147;SDS011;6639;50.956;4.242;2023-06-10T12:55:46;5.45;;;5.10;;
13147;SDS011;6639;50.956;4.242;2023-06-10T12:58:13;5.40;;;4.90;;
13147;SDS011;6639;50.956;4.242;2023-06-10T13:00:40;7.38;;;4.95;;
13147;SDS011;6639;50.956;4.242;2023-06-10T13:03:08;5.20;;;4.78;;
13147;SDS011;6639;50.956;4.242;2023-06-10T13:05:36;5.00;;;4.50;;
13147;SDS011;6639;50.956;4.242;2023-06-10T13:08:04;4.80;;;4.28;;
13147;SDS011;6639;50.956;4.242;2023-06-10T13:10:33;5.75;;;4.50;;
13147;SDS011;6639;50.956;4.242;2023-06-10T13:13:00;5.43;;;4.93;;
13147;SDS011;6639;50.956;4.242;2023-06-10T13:15:30;4.85;;;4.45;;
13147;SDS011;6639;50.956;4.242;2023-06-10T13:18:01;4.68;;;4.28;;
13147;SDS011;6639;50.956;4.242;2023-06-10T13:20:29;5.25;;;4.75;;
13147;SDS011;6639;50.956;4.242;2023-06-10T13:22:56;5.47;;;4.60;;
13147;SDS011;6639;50.956;4.242;2023-06-10T13:25:23;5.00;;;4.60;;
13147;SDS011;6639;50.956;4.242;2023-06-10T13:27:51;5.18;;;4.78;;
13147;SDS011;6639;50.956;4.242;2023-06-10T13:30:18;4.47;;;4.07;;
13147;SDS011;6639;50.956;4.242;2023-06-10T13:32:45;4.80;;;4.30;;
13147;SDS011;6639;50.956;4.242;2023-06-10T13:35:12;5.70;;;5.00;;
13147;SDS011;6639;50.956;4.242;2023-06-10T13:37:39;4.75;;;4.32;;
13147;SDS011;6639;50.956;4.242;2023-06-10T13:40:06;4.32;;;3.97;;
13147;SDS011;6639;50.956;4.242;2023-06-10T13:42:34;4.72;;;4.30;;
13147;SDS011;6639;50.956;4.242;2023-06-10T13:45:03;4.88;;;4.40;;
13147;SDS011;6639;50.956;4.242;2023-06-10T13:47:32;5.25;;;4.72;;
13147;SDS011;6639;50.956;4.242;2023-06-10T13:49:58;5.45;;;4.75;;
13147;SDS011;6639;50.956;4.242;2023-06-10T13:52:25;5.15;;;4.63;;
13147;SDS011;6639;50.956;4.242;2023-06-10T13:54:52;4.78;;;4.32;;
13147;SDS011;6639;50.956;4.242;2023-06-10T13:57:19;5.10;;;4.60;;
13147;SDS011;6639;50.956;4.242;2023-06-10T13:59:46;4.97;;;4.60;;
13147;SDS011;6639;50.956;4.242;2023-06-10T14:02:14;5.05;;;4.55;;
13147;SDS011;6639;50.956;4.242;2023-06-10T14:04:41;4.60;;;4.18;;
13147;SDS011;6639;50.956;4.242;2023-06-10T14:07:08;5.55;;;4.88;;
13147;SDS011;6639;50.956;4.242;2023-06-10T14:09:35;5.03;;;4.63;;
13147;SDS011;6639;50.956;4.242;2023-06-10T14:12:02;4.72;;;4.43;;
13147;SDS011;6639;50.956;4.242;2023-06-10T14:14:30;7.35;;;4.90;;
13147;SDS011;6639;50.956;4.242;2023-06-10T14:16:58;5.63;;;4.85;;
13147;SDS011;6639;50.956;4.242;2023-06-10T14:19:26;5.20;;;4.80;;
13147;SDS011;6639;50.956;4.242;2023-06-10T14:21:53;4.70;;;4.40;;
13147;SDS011;6639;50.956;4.242;2023-06-10T14:24:20;5.05;;;4.70;;
13147;SDS011;6639;50.956;4.242;2023-06-10T14:26:47;6.63;;;4.38;;
13147;SDS011;6639;50.956;4.242;2023-06-10T14:29:14;5.28;;;4.53;;
13147;SDS011;6639;50.956;4.242;2023-06-10T14:31:43;5.18;;;4.78;;
13147;SDS011;6639;50.956;4.242;2023-06-10T14:34:10;5.18;;;4.78;;
13147;SDS011;6639;50.956;4.242;2023-06-10T14:36:38;5.97;;;5.32;;
13147;SDS011;6639;50.956;4.242;2023-06-10T14:39:05;10.85;;;5.40;;
13147;SDS011;6639;50.956;4.242;2023-06-10T14:41:32;5.28;;;4.78;;
13147;SDS011;6639;50.956;4.242;2023-06-10T14:43:59;5.32;;;4.88;;
13147;SDS011;6639;50.956;4.242;2023-06-10T14:46:26;5.65;;;5.15;;
13147;SDS011;6639;50.956;4.242;2023-06-10T14:48:52;4.47;;;4.07;;
13147;SDS011;6639;50.956;4.242;2023-06-10T14:51:19;5.47;;;5.00;;
13147;SDS011;6639;50.956;4.242;2023-06-10T14:53:48;5.10;;;4.70;;
13147;SDS011;6639;50.956;4.242;2023-06-10T14:56:15;7.68;;;4.78;;
13147;SDS011;6639;50.956;4.242;2023-06-10T14:58:42;4.97;;;4.57;;
13147;SDS011;6639;50.956;4.242;2023-06-10T15:01:09;5.10;;;4.70;;
13147;SDS011;6639;50.956;4.242;2023-06-10T15:03:36;5.32;;;4.82;;
13147;SDS011;6639;50.956;4.242;2023-06-10T15:06:03;4.97;;;4.60;;